createdAt,value
2022-09-23T00:01:47.862Z,32.53
2022-09-23T00:04:17.341Z,22.58
2022-09-23T00:06:46.482Z,29.20
2022-09-23T00:09:15.486Z,36.50
2022-09-23T00:11:44.549Z,51.47
2022-09-23T00:14:13.496Z,54.53
2022-09-23T00:16:43.295Z,58.60
2022-09-23T00:19:12.145Z,66.15
2022-09-23T00:21:41.557Z,64.25
2022-09-23T00:24:11.488Z,59.30
2022-09-23T00:26:40.303Z,50.90
2022-09-23T00:29:09.586Z,52.08
2022-09-23T00:31:38.488Z,50.70
2022-09-23T00:34:07.983Z,38.58
2022-09-23T00:36:37.035Z,36.72
2022-09-23T00:39:06.379Z,34.28
2022-09-23T00:41:36.438Z,32.58
2022-09-23T00:45:00.209Z,34.38
2022-09-23T00:47:57.930Z,41.42
2022-09-23T00:50:37.715Z,41.88
2022-09-23T00:53:10.830Z,40.13
2022-09-23T00:55:50.692Z,38.92
2022-09-23T00:58:32.287Z,38.03
2022-09-23T01:01:04.124Z,42.40
2022-09-23T01:03:39.383Z,45.42
2022-09-23T01:06:14.147Z,47.40
2022-09-23T01:08:51.567Z,58.15
2022-09-23T01:11:42.170Z,64.65
2022-09-23T01:14:30.496Z,65.43
2022-09-23T01:17:31.549Z,63.00
2022-09-23T01:20:37.471Z,63.25
2022-09-23T01:23:25.291Z,65.00
2022-09-23T01:26:13.896Z,59.45
2022-09-23T01:29:08.039Z,58.55
2022-09-23T01:31:48.158Z,54.58
2022-09-23T01:34:40.683Z,56.53
2022-09-23T01:37:20.474Z,58.47
2022-09-23T01:40:05.591Z,50.13
2022-09-23T01:42:50.533Z,45.47
2022-09-23T01:45:40.377Z,39.20
2022-09-23T01:48:15.021Z,36.53
2022-09-23T01:51:11.140Z,36.85
2022-09-23T01:54:08.110Z,33.58
2022-09-23T01:56:44.823Z,32.80
2022-09-23T01:59:27.800Z,34.20
2022-09-23T02:02:16.500Z,32.08
2022-09-23T02:04:55.271Z,30.67
2022-09-23T02:07:40.764Z,29.08
2022-09-23T02:10:27.802Z,31.55
2022-09-23T02:13:07.824Z,32.60
2022-09-23T02:15:43.084Z,32.38
2022-09-23T02:18:36.959Z,29.98
2022-09-23T02:21:10.523Z,29.23
2022-09-23T02:23:56.634Z,31.85
2022-09-23T02:26:41.546Z,31.42
2022-09-23T02:29:33.282Z,30.67
2022-09-23T02:32:26.135Z,30.55
2022-09-23T02:35:11.461Z,32.63
2022-09-23T02:38:18.522Z,31.55
2022-09-23T02:41:07.618Z,36.03
2022-09-23T02:43:56.336Z,49.67
2022-09-23T02:46:29.888Z,37.97
2022-09-23T02:49:25.528Z,28.10
2022-09-23T02:51:59.124Z,24.27
2022-09-23T02:54:31.476Z,29.05
2022-09-23T02:57:12.309Z,31.35
2022-09-23T02:59:45.501Z,30.52
2022-09-23T03:02:19.476Z,27.65
2022-09-23T03:05:05.469Z,24.42
2022-09-23T03:08:11.937Z,20.98
2022-09-23T03:11:06.690Z,18.92
2022-09-23T03:14:06.770Z,18.60
2022-09-23T03:17:17.043Z,17.13
2022-09-23T03:20:04.140Z,14.90
2022-09-23T03:22:46.196Z,12.75
2022-09-23T03:25:26.921Z,13.45
2022-09-23T03:28:02.495Z,12.35
2022-09-23T03:30:39.431Z,16.35
2022-09-23T03:33:15.196Z,15.57
2022-09-23T03:36:25.572Z,16.10
2022-09-23T03:39:06.468Z,15.35
2022-09-23T03:41:53.601Z,15.35
2022-09-23T03:44:26.716Z,17.92
2022-09-23T03:47:09.953Z,17.63
2022-09-23T03:50:02.023Z,17.55
2022-09-23T03:52:36.710Z,17.70
2022-09-23T03:55:16.561Z,18.13
2022-09-23T03:57:52.015Z,16.27
2022-09-23T04:00:23.679Z,16.35
2022-09-23T04:03:10.876Z,15.43
2022-09-23T04:05:54.964Z,18.35
2022-09-23T04:08:30.400Z,17.67
2022-09-23T04:11:15.181Z,19.08
2022-09-23T04:13:51.588Z,17.55
2022-09-23T04:16:26.091Z,18.48
2022-09-23T04:18:58.805Z,18.25
2022-09-23T04:21:33.508Z,20.50
2022-09-23T04:24:06.483Z,18.75
2022-09-23T04:26:39.665Z,18.10
2022-09-23T04:29:13.778Z,19.45
2022-09-23T04:31:45.626Z,17.52
2022-09-23T04:34:19.986Z,16.45
2022-09-23T04:36:54.983Z,18.58
2022-09-23T04:39:27.675Z,17.77
2022-09-23T04:44:37.528Z,17.60
2022-09-23T04:47:17.483Z,19.52
2022-09-23T04:49:51.493Z,18.30
2022-09-23T04:52:25.882Z,18.08
2022-09-23T04:54:58.801Z,16.95
2022-09-23T04:57:32.654Z,18.40
2022-09-23T05:00:06.422Z,19.02
2022-09-23T05:03:02.449Z,17.77
2022-09-23T05:05:37.579Z,14.32
2022-09-23T05:08:10.485Z,15.35
2022-09-23T05:10:47.339Z,13.30
2022-09-23T05:13:20.543Z,12.50
2022-09-23T05:15:52.401Z,14.18
2022-09-23T05:18:24.178Z,17.17
2022-09-23T05:21:06.971Z,15.68
2022-09-23T05:23:43.185Z,15.38
2022-09-23T05:26:17.795Z,12.07
2022-09-23T05:28:50.930Z,12.70
2022-09-23T05:31:36.398Z,15.40
2022-09-23T05:34:27.533Z,11.80
2022-09-23T05:37:16.349Z,11.88
2022-09-23T05:40:02.944Z,11.57
2022-09-23T05:42:38.727Z,10.30
2022-09-23T05:45:12.056Z,11.98
2022-09-23T05:47:56.072Z,11.43
2022-09-23T05:50:31.206Z,11.45
2022-09-23T05:53:06.638Z,12.75
2022-09-23T05:55:39.557Z,11.65
2022-09-23T06:01:01.910Z,11.60
2022-09-23T06:03:30.950Z,14.02
2022-09-23T06:05:59.972Z,13.02
2022-09-23T06:08:29.418Z,13.70
2022-09-23T06:10:59.463Z,10.75
2022-09-23T06:13:28.826Z,30.63
2022-09-23T06:15:59.617Z,60.70
2022-09-23T06:18:28.822Z,104.07
2022-09-23T06:21:01.487Z,35.40
2022-09-23T06:23:31.666Z,17.38
2022-09-23T06:28:50.123Z,100.63
2022-09-23T06:31:24.164Z,193.10
2022-09-23T06:34:02.426Z,94.32
2022-09-23T06:36:46.424Z,145.57
2022-09-23T06:39:17.011Z,103.13
2022-09-23T06:41:46.736Z,76.97
2022-09-23T06:44:16.648Z,34.72
2022-09-23T06:46:48.163Z,31.55
2022-09-23T06:49:21.201Z,24.73
2022-09-23T06:51:51.431Z,26.17
2022-09-23T06:54:21.381Z,26.70
2022-09-23T06:56:50.308Z,20.77
2022-09-23T06:59:19.795Z,17.85
2022-09-23T07:01:49.293Z,17.63
2022-09-23T07:04:18.972Z,13.40
2022-09-23T07:06:47.926Z,14.52
2022-09-23T07:09:17.027Z,13.35
2022-09-23T07:11:48.464Z,13.80
2022-09-23T07:14:17.379Z,18.97
2022-09-23T07:16:46.616Z,20.60
2022-09-23T07:19:15.714Z,20.02
2022-09-23T07:21:45.064Z,19.02
2022-09-23T07:24:14.237Z,17.55
2022-09-23T07:26:45.683Z,20.58
2022-09-23T07:29:44.088Z,17.02
2022-09-23T07:32:18.321Z,12.35
2022-09-23T07:34:48.425Z,12.98
2022-09-23T07:37:18.675Z,15.60
2022-09-23T07:39:47.959Z,17.30
2022-09-23T07:42:17.021Z,19.08
2022-09-23T07:44:47.186Z,16.48
2022-09-23T07:47:16.779Z,15.30
2022-09-23T07:49:45.957Z,17.30
2022-09-23T07:52:15.205Z,14.50
2022-09-23T07:54:44.346Z,18.05
2022-09-23T07:57:13.245Z,20.00
2022-09-23T07:59:44.485Z,19.38
2022-09-23T08:02:16.003Z,19.15
2022-09-23T08:04:50.245Z,25.50
2022-09-23T08:07:20.089Z,24.85
2022-09-23T08:09:49.826Z,18.63
2022-09-23T08:12:20.892Z,18.98
2022-09-23T08:14:50.013Z,18.50
2022-09-23T08:17:19.475Z,14.18
2022-09-23T08:19:48.746Z,12.00
2022-09-23T08:22:18.176Z,11.95
2022-09-23T08:24:47.086Z,10.00
2022-09-23T08:27:16.257Z,7.47
2022-09-23T08:29:46.044Z,6.97
2022-09-23T08:32:15.579Z,7.78
2022-09-23T08:34:45.057Z,7.72
2022-09-23T08:37:14.603Z,7.15
2022-09-23T08:39:43.423Z,5.53
2022-09-23T08:42:33.543Z,8.00
2022-09-23T08:45:06.166Z,7.68
2022-09-23T08:48:01.655Z,7.60
2022-09-23T08:50:43.637Z,5.90
2022-09-23T08:53:32.217Z,6.95
2022-09-23T08:56:08.896Z,5.43
2022-09-23T08:59:02.112Z,5.82
2022-09-23T09:01:45.862Z,5.25
2022-09-23T09:04:23.477Z,4.78
2022-09-23T09:07:24.612Z,3.88
2022-09-23T09:10:17.898Z,4.18
2022-09-23T09:13:12.527Z,5.15
2022-09-23T09:16:00.121Z,5.93
2022-09-23T09:18:33.341Z,7.47
2022-09-23T09:21:11.690Z,7.15
2022-09-23T09:23:46.752Z,13.90
2022-09-23T09:26:25.884Z,24.98
2022-09-23T09:29:23.837Z,18.05
2022-09-23T09:31:57.387Z,13.77
2022-09-23T09:34:41.209Z,11.50
2022-09-23T09:37:13.703Z,12.02
2022-09-23T09:39:43.197Z,14.35
2022-09-23T09:42:28.506Z,14.63
2022-09-23T09:45:06.434Z,15.55
2022-09-23T09:47:52.592Z,13.27
2022-09-23T09:51:05.414Z,13.43
2022-09-23T09:53:37.168Z,12.82
2022-09-23T09:56:12.302Z,16.60
2022-09-23T09:58:52.449Z,17.23
2022-09-23T10:01:27.127Z,16.50
2022-09-23T10:07:33.345Z,13.40
2022-09-23T10:10:34.949Z,13.07
2022-09-23T10:13:17.241Z,12.57
2022-09-23T10:16:02.211Z,13.10
2022-09-23T10:18:58.090Z,46.47
2022-09-23T10:21:34.565Z,98.80
2022-09-23T10:24:08.081Z,55.33
2022-09-23T10:26:45.868Z,43.03
2022-09-23T10:29:24.535Z,23.00
2022-09-23T10:32:31.567Z,19.83
2022-09-23T10:35:16.770Z,21.88
2022-09-23T10:37:51.987Z,15.93
2022-09-23T10:41:02.799Z,14.60
2022-09-23T10:43:59.233Z,18.27
2022-09-23T10:46:48.813Z,14.68
2022-09-23T10:49:56.445Z,15.18
2022-09-23T10:52:53.198Z,15.02
2022-09-23T10:56:03.777Z,13.60
2022-09-23T10:59:15.481Z,10.60
2022-09-23T11:02:05.390Z,9.18
2022-09-23T11:04:52.865Z,9.70
2022-09-23T11:07:40.617Z,10.82
2022-09-23T11:10:23.240Z,12.55
2022-09-23T11:13:10.203Z,14.18
2022-09-23T11:16:05.190Z,22.15
2022-09-23T11:19:09.719Z,18.85
2022-09-23T11:22:23.324Z,27.15
2022-09-23T11:24:59.284Z,22.80
2022-09-23T11:27:56.405Z,22.73
2022-09-23T11:30:44.319Z,22.13
2022-09-23T11:33:37.909Z,21.88
2022-09-23T11:36:13.727Z,22.83
2022-09-23T11:38:49.032Z,21.17
2022-09-23T11:41:29.548Z,23.98
2022-09-23T11:44:10.009Z,35.08
2022-09-23T11:47:04.977Z,43.60
2022-09-23T11:49:46.137Z,39.50
2022-09-23T11:52:33.365Z,47.67
2022-09-23T11:55:21.588Z,39.78
2022-09-23T11:57:59.406Z,48.35
2022-09-23T12:00:39.650Z,40.53
2022-09-23T12:03:26.575Z,42.20
2022-09-23T12:06:21.109Z,36.35
2022-09-23T12:08:56.718Z,33.50
2022-09-23T12:11:28.660Z,23.67
2022-09-23T12:14:17.489Z,20.65
2022-09-23T12:17:08.333Z,18.60
2022-09-23T12:20:02.383Z,29.65
2022-09-23T12:22:50.374Z,18.52
2022-09-23T12:25:44.297Z,15.88
2022-09-23T12:28:24.609Z,17.40
2022-09-23T12:30:55.966Z,14.65
2022-09-23T12:33:34.328Z,15.90
2022-09-23T12:36:09.985Z,17.73
2022-09-23T12:38:51.276Z,18.15
2022-09-23T12:41:38.651Z,18.10
2022-09-23T12:44:14.719Z,21.60
2022-09-23T12:46:47.956Z,20.58
2022-09-23T12:49:29.362Z,20.00
2022-09-23T12:52:19.597Z,20.08
2022-09-23T12:54:51.037Z,19.67
2022-09-23T12:57:35.364Z,20.07
2022-09-23T13:00:13.229Z,20.00
2022-09-23T13:03:15.068Z,19.40
2022-09-23T13:06:07.812Z,19.80
2022-09-23T13:11:26.900Z,18.10
2022-09-23T13:14:00.963Z,19.70
2022-09-23T13:16:45.026Z,22.02
2022-09-23T13:19:38.568Z,22.45
2022-09-23T13:22:12.395Z,23.15
2022-09-23T13:24:46.909Z,22.95
2022-09-23T13:27:27.814Z,20.50
2022-09-23T13:30:15.418Z,20.38
2022-09-23T13:33:14.089Z,21.10
2022-09-23T13:35:54.316Z,20.00
2022-09-23T13:38:30.877Z,21.33
2022-09-23T13:41:09.135Z,19.95
2022-09-23T13:43:52.402Z,19.73
2022-09-23T13:46:31.339Z,20.15
2022-09-23T13:49:00.821Z,21.90
2022-09-23T13:51:36.134Z,22.77
2022-09-23T13:54:07.546Z,21.67
2022-09-23T13:56:38.765Z,24.92
2022-09-23T13:59:22.103Z,23.73
2022-09-23T14:01:51.272Z,25.98
2022-09-23T14:04:29.161Z,25.55
2022-09-23T14:06:58.772Z,27.05
2022-09-23T14:09:30.264Z,30.10
2022-09-23T14:12:02.320Z,30.33
2022-09-23T14:14:32.436Z,28.08
2022-09-23T14:17:02.521Z,30.08
2022-09-23T14:19:33.057Z,32.92
2022-09-23T14:22:02.466Z,32.83
2022-09-23T14:24:31.444Z,33.53
2022-09-23T14:27:02.553Z,33.00
2022-09-23T14:29:36.175Z,32.10
2022-09-23T14:32:26.903Z,34.25
2022-09-23T14:35:01.651Z,34.13
2022-09-23T14:37:57.960Z,32.90
2022-09-23T14:40:36.912Z,32.63
2022-09-23T14:43:07.089Z,33.20
2022-09-23T14:45:39.746Z,33.33
2022-09-23T14:48:14.178Z,35.95
2022-09-23T14:50:57.484Z,35.58
2022-09-23T14:53:44.010Z,33.92
2022-09-23T14:56:18.891Z,32.88
2022-09-23T14:58:57.829Z,31.73
2022-09-23T15:01:33.325Z,33.80
2022-09-23T15:04:14.191Z,33.95
2022-09-23T15:07:00.808Z,31.95
2022-09-23T15:09:48.237Z,32.05
2022-09-23T15:12:22.409Z,31.40
2022-09-23T15:14:55.260Z,31.40
2022-09-23T15:17:24.253Z,33.13
2022-09-23T15:20:00.279Z,31.38
2022-09-23T15:22:29.603Z,32.28
2022-09-23T15:25:19.608Z,31.88
2022-09-23T15:28:10.389Z,31.80
2022-09-23T15:30:40.926Z,32.15
2022-09-23T15:33:15.216Z,31.80
2022-09-23T15:35:48.959Z,34.60
2022-09-23T15:38:22.407Z,32.22
2022-09-23T15:40:52.034Z,34.83
2022-09-23T15:43:24.837Z,34.70
2022-09-23T15:46:03.094Z,34.58
2022-09-23T15:48:42.329Z,34.80
2022-09-23T15:51:16.270Z,37.05
2022-09-23T15:53:45.659Z,37.65
2022-09-23T15:56:14.840Z,36.30
2022-09-23T15:58:44.253Z,36.17
2022-09-23T16:01:30.785Z,37.40
2022-09-23T16:04:05.029Z,38.00
2022-09-23T16:06:36.522Z,40.13
2022-09-23T16:09:05.757Z,38.40
2022-09-23T16:11:38.421Z,40.63
2022-09-23T16:14:09.630Z,38.33
2022-09-23T16:16:38.974Z,40.25
2022-09-23T16:19:08.049Z,40.25
2022-09-23T16:21:37.048Z,39.95
2022-09-23T16:24:06.450Z,41.17
2022-09-23T16:26:36.996Z,41.30
2022-09-23T16:29:06.763Z,43.03
2022-09-23T16:31:37.291Z,46.20
2022-09-23T16:34:07.049Z,47.10
2022-09-23T16:36:43.032Z,46.97
2022-09-23T16:39:14.606Z,46.08
2022-09-23T16:41:44.499Z,44.67
2022-09-23T16:44:13.614Z,51.92
2022-09-23T16:46:44.049Z,73.13
2022-09-23T16:49:13.196Z,81.95
2022-09-23T16:51:43.226Z,85.57
2022-09-23T16:54:13.953Z,79.40
2022-09-23T16:56:46.481Z,68.35
2022-09-23T16:59:17.125Z,65.60
2022-09-23T17:02:05.488Z,59.17
2022-09-23T17:04:34.856Z,55.90
2022-09-23T17:07:03.867Z,55.70
2022-09-23T17:09:33.757Z,52.60
2022-09-23T17:12:24.676Z,52.08
2022-09-23T17:14:54.096Z,52.13
2022-09-23T17:17:23.547Z,53.80
2022-09-23T17:19:52.559Z,56.55
2022-09-23T17:22:22.076Z,57.22
2022-09-23T17:24:52.175Z,61.88
2022-09-23T17:27:22.599Z,66.13
2022-09-23T17:29:51.941Z,59.97
2022-09-23T17:32:22.228Z,61.78
2022-09-23T17:34:51.793Z,58.63
2022-09-23T17:37:21.257Z,63.55
2022-09-23T17:39:51.262Z,65.28
2022-09-23T17:42:23.206Z,70.13
2022-09-23T17:44:52.366Z,64.97
2022-09-23T17:47:21.294Z,68.40
2022-09-23T17:49:50.925Z,70.00
2022-09-23T17:52:21.083Z,79.22
2022-09-23T17:54:50.116Z,81.57
2022-09-23T17:57:19.269Z,83.57
2022-09-23T17:59:51.853Z,82.50
2022-09-23T18:02:23.762Z,83.25
2022-09-23T18:04:53.111Z,75.35
2022-09-23T18:07:22.660Z,71.30
2022-09-23T18:09:51.818Z,72.03
2022-09-23T18:12:21.161Z,69.75
2022-09-23T18:14:50.345Z,62.95
2022-09-23T18:17:19.153Z,57.30
2022-09-23T18:19:50.406Z,53.40
2022-09-23T18:22:19.494Z,53.95
2022-09-23T18:24:48.467Z,54.00
2022-09-23T18:27:17.574Z,57.17
2022-09-23T18:29:46.662Z,59.40
2022-09-23T18:32:16.247Z,63.40
2022-09-23T18:34:45.351Z,62.58
2022-09-23T18:37:16.036Z,66.50
2022-09-23T18:39:45.566Z,59.15
2022-09-23T18:42:15.283Z,48.88
2022-09-23T18:44:44.431Z,46.13
2022-09-23T18:47:33.378Z,47.42
2022-09-23T18:50:20.654Z,47.28
2022-09-23T18:52:49.987Z,44.28
2022-09-23T18:55:21.456Z,42.38
2022-09-23T18:57:51.120Z,39.40
2022-09-23T19:00:20.973Z,39.05
2022-09-23T19:02:50.029Z,37.25
2022-09-23T19:05:20.133Z,34.67
2022-09-23T19:07:49.277Z,36.25
2022-09-23T19:10:20.214Z,35.58
2022-09-23T19:12:49.512Z,34.97
2022-09-23T19:15:19.020Z,33.67
2022-09-23T19:17:48.237Z,34.10
2022-09-23T19:20:17.874Z,36.30
2022-09-23T19:22:49.002Z,36.45
2022-09-23T19:25:18.460Z,35.00
2022-09-23T19:27:47.929Z,32.80
2022-09-23T19:30:17.154Z,34.53
2022-09-23T19:32:46.549Z,34.17
2022-09-23T19:35:17.147Z,31.38
2022-09-23T19:37:49.130Z,31.98
2022-09-23T19:40:18.695Z,33.78
2022-09-23T19:42:47.664Z,32.20
2022-09-23T19:45:18.461Z,32.00
2022-09-23T19:47:47.491Z,31.38
2022-09-23T19:50:17.011Z,31.65
2022-09-23T19:52:46.050Z,32.67
2022-09-23T19:55:15.052Z,31.17
2022-09-23T19:57:44.176Z,33.53
2022-09-23T20:00:16.051Z,32.63
2022-09-23T20:02:45.362Z,33.00
2022-09-23T20:05:18.443Z,33.83
2022-09-23T20:07:49.480Z,35.10
2022-09-23T20:10:19.191Z,33.75
2022-09-23T20:12:48.701Z,34.65
2022-09-23T20:15:18.137Z,38.53
2022-09-23T20:17:47.240Z,42.67
2022-09-23T20:20:16.875Z,40.67
2022-09-23T20:22:46.450Z,42.45
2022-09-23T20:25:15.471Z,43.80
2022-09-23T20:27:44.374Z,49.75
2022-09-23T20:30:13.790Z,49.72
2022-09-23T20:32:44.739Z,47.80
2022-09-23T20:35:14.884Z,47.60
2022-09-23T20:37:44.126Z,46.47
2022-09-23T20:40:13.132Z,44.78
2022-09-23T20:42:42.258Z,42.85
2022-09-23T20:45:11.630Z,42.80
2022-09-23T20:47:40.680Z,39.00
2022-09-23T20:50:10.236Z,38.95
2022-09-23T20:52:39.183Z,38.20
2022-09-23T20:55:09.263Z,37.67
2022-09-23T20:57:38.567Z,37.17
2022-09-23T21:00:11.467Z,38.08
2022-09-23T21:02:40.728Z,39.28
2022-09-23T21:05:11.578Z,39.33
2022-09-23T21:07:40.939Z,40.55
2022-09-23T21:10:10.002Z,41.10
2022-09-23T21:12:39.340Z,42.28
2022-09-23T21:15:08.854Z,41.88
2022-09-23T21:17:37.910Z,40.92
2022-09-23T21:20:07.402Z,40.58
2022-09-23T21:22:37.084Z,43.25
2022-09-23T21:27:55.877Z,38.95
2022-09-23T21:30:25.102Z,42.15
2022-09-23T21:32:54.245Z,42.80
2022-09-23T21:35:24.768Z,41.35
2022-09-23T21:37:54.012Z,41.72
2022-09-23T21:40:41.418Z,48.35
2022-09-23T21:43:10.446Z,48.63
2022-09-23T21:45:39.676Z,48.70
2022-09-23T21:48:08.643Z,50.38
2022-09-23T21:50:41.786Z,48.88
2022-09-23T21:53:11.344Z,51.92
2022-09-23T21:55:43.326Z,50.63
2022-09-23T21:58:12.896Z,50.58
2022-09-23T22:00:41.794Z,48.70
2022-09-23T22:03:10.830Z,50.83
2022-09-23T22:05:43.165Z,52.60
2022-09-23T22:08:12.532Z,51.45
2022-09-23T22:10:41.581Z,53.20
2022-09-23T22:13:12.937Z,54.13
2022-09-23T22:15:43.220Z,61.58
2022-09-23T22:18:12.806Z,63.92
2022-09-23T22:20:42.707Z,72.38
2022-09-23T22:23:11.642Z,73.80
2022-09-23T22:25:40.955Z,75.25
2022-09-23T22:28:28.250Z,77.95
2022-09-23T22:31:17.974Z,80.75
2022-09-23T22:33:47.193Z,94.35
2022-09-23T22:36:16.399Z,87.53
2022-09-23T22:38:45.188Z,87.03
2022-09-23T22:41:16.472Z,88.75
2022-09-23T22:43:45.445Z,91.18
2022-09-23T22:46:14.651Z,89.68
2022-09-23T22:48:43.963Z,92.07
2022-09-23T22:51:13.538Z,95.63
2022-09-23T22:53:42.656Z,93.53
2022-09-23T22:56:11.609Z,96.57
2022-09-23T22:58:40.739Z,95.22
2022-09-23T23:01:12.378Z,98.03
2022-09-23T23:03:42.681Z,100.88
2022-09-23T23:06:11.923Z,98.47
2022-09-23T23:08:41.743Z,110.30
2022-09-23T23:11:11.260Z,109.10
2022-09-23T23:13:42.839Z,109.32
2022-09-23T23:16:14.284Z,108.70
2022-09-23T23:18:44.605Z,110.25
2022-09-23T23:21:15.317Z,104.78
2022-09-23T23:23:46.932Z,96.20
2022-09-23T23:26:28.093Z,91.47
2022-09-23T23:28:57.894Z,89.32
2022-09-23T23:31:29.578Z,89.10
2022-09-23T23:33:58.721Z,84.15
2022-09-23T23:36:27.692Z,83.70
2022-09-23T23:38:57.161Z,83.40
2022-09-23T23:41:26.148Z,78.35
2022-09-23T23:43:58.267Z,77.05
2022-09-23T23:46:32.669Z,70.40
2022-09-23T23:49:02.401Z,73.28
2022-09-23T23:51:31.921Z,74.88
2022-09-23T23:54:01.634Z,72.10
2022-09-23T23:56:32.875Z,66.68
2022-09-23T23:59:06.360Z,67.70
